KELD

South Arkansas Regional at Goodwin Field Airport

El Dorado, Arkansas, USA
METAR KELD 191653Z AUTO VRB03KT 10SM CLR 32/25 A2994 RMK AO2 SLP132 T03220250 $
Observed Flight Rules
Aug-19 @ 16:53 UTC (19 minutes ago) Visual Flight Rules
Wind Visibility Clouds
Variable at 3 knots 10 miles
  • Clear skies
Temperatures Readings
Current 32°C / 90°F
Dewpoint 25°C / 77°F
Humidity 67%
Altimeter 29.94" Hg
Pressure 1013.2 hPa
Elevation 81
METAR KELD 191653Z AUTO VRB03KT 10SM CLR 32/25 A2994 RMK AO2 SLP132 T03220250 $
Observed Flight Rules
Aug-19 @ 16:53 UTC
(19 minutes ago)
VFR
Wind Visibility
Variable at 3 knots 10 miles
Clouds
  • Clear skies
Temperature Dewpoint
32°C / 90°F 25°C / 77°F
Humidity Altimeter Pressure
67% 29.94" Hg 1013.2 hPa